aviador You're here:

LFYR Decoded Metar

ROMORANTIN/PRUNI in FRANCE
Report Time2017-08-24 08:30:00
UTC Time2017-08-24 08:50:48
Flight Rules vfr VFR
Wind070° at 03 kt
W.Decomp.*RWY 05: 2.8 kt HW 1.1 kt RCW
W.Rank070° ranks 18
Current wind is below 070° avg. (4.8)
Visibility9999 m
Phenomena:N/A
Clouds:N/A
Expected CloudBase > 2,000 ft AGL from Temp-Dew spread
CeilingNone
Temp22°C (ISA +8)
Dew Point17°C (73% RH)
QNH1018 hPa
Density Alt1,253 ft
Elevation282 ft
Report Wrong Elevation
Raw Report
METAR LFYR 240830Z AUTO 07003KT 030V130 CAVOK 22/17 Q1018 NOSIG=

Extra information for LFYR:More info

Metar Taf Metar & Taf Last 4 Metars F.Rules Stats Wind Profile Meteogram Temp Stats Airport Information Weather charts Add Link Nearby VenuesMetar ALERT Operation Metar Decoded Social comments